sensor_id;sensor_type;location;lat;lon;timestamp;pressure;altitude;pressure_sealevel;temperature;humidity
23574;BME280;11965;53.640;10.050;2023-05-02T00:00:27;101349.50;;;10.58;98.69
23574;BME280;11965;53.640;10.050;2023-05-02T00:02:54;101344.47;;;10.62;98.45
23574;BME280;11965;53.640;10.050;2023-05-02T00:05:21;101342.06;;;10.59;100.00
23574;BME280;11965;53.640;10.050;2023-05-02T00:07:48;101346.88;;;10.65;99.24
23574;BME280;11965;53.640;10.050;2023-05-02T00:10:17;101348.09;;;10.63;99.96
23574;BME280;11965;53.640;10.050;2023-05-02T00:12:43;101343.94;;;10.58;100.00
23574;BME280;11965;53.640;10.050;2023-05-02T00:15:10;101337.38;;;10.59;100.00
23574;BME280;11965;53.640;10.050;2023-05-02T00:17:39;101339.09;;;10.60;100.00
23574;BME280;11965;53.640;10.050;2023-05-02T00:20:07;101336.16;;;10.62;100.00
23574;BME280;11965;53.640;10.050;2023-05-02T00:22:35;101342.50;;;10.71;100.00
23574;BME280;11965;53.640;10.050;2023-05-02T00:25:02;101344.34;;;10.78;100.00
23574;BME280;11965;53.640;10.050;2023-05-02T00:27:30;101340.72;;;10.78;100.00
23574;BME280;11965;53.640;10.050;2023-05-02T00:29:58;101338.31;;;10.75;100.00
23574;BME280;11965;53.640;10.050;2023-05-02T00:32:25;101345.75;;;10.74;100.00
23574;BME280;11965;53.640;10.050;2023-05-02T00:34:52;101342.31;;;10.72;100.00
23574;BME280;11965;53.640;10.050;2023-05-02T00:37:19;101340.16;;;10.82;100.00
23574;BME280;11965;53.640;10.050;2023-05-02T00:39:47;101344.13;;;10.88;100.00
23574;BME280;11965;53.640;10.050;2023-05-02T00:42:13;101348.84;;;10.79;100.00
23574;BME280;11965;53.640;10.050;2023-05-02T00:44:42;101345.59;;;10.76;100.00
23574;BME280;11965;53.640;10.050;2023-05-02T00:47:09;101351.56;;;10.88;100.00
23574;BME280;11965;53.640;10.050;2023-05-02T00:49:36;101349.31;;;10.91;100.00
23574;BME280;11965;53.640;10.050;2023-05-02T00:52:03;101352.94;;;10.92;100.00
23574;BME280;11965;53.640;10.050;2023-05-02T00:54:30;101354.53;;;10.86;100.00
23574;BME280;11965;53.640;10.050;2023-05-02T00:56:57;101351.38;;;10.89;100.00
23574;BME280;11965;53.640;10.050;2023-05-02T00:59:25;101349.47;;;10.90;100.00
23574;BME280;11965;53.640;10.050;2023-05-02T01:02:10;101347.59;;;10.82;100.00
23574;BME280;11965;53.640;10.050;2023-05-02T01:04:53;101347.13;;;10.78;100.00
23574;BME280;11965;53.640;10.050;2023-05-02T01:07:41;101349.91;;;10.78;100.00
23574;BME280;11965;53.640;10.050;2023-05-02T01:10:20;101345.22;;;10.79;100.00
23574;BME280;11965;53.640;10.050;2023-05-02T01:12:57;101347.97;;;10.79;100.00
23574;BME280;11965;53.640;10.050;2023-05-02T01:15:25;101345.41;;;10.77;100.00
23574;BME280;11965;53.640;10.050;2023-05-02T01:17:54;101342.06;;;10.82;100.00
23574;BME280;11965;53.640;10.050;2023-05-02T01:20:26;101341.22;;;10.81;100.00
23574;BME280;11965;53.640;10.050;2023-05-02T01:23:02;101351.25;;;10.82;100.00
23574;BME280;11965;53.640;10.050;2023-05-02T01:25:36;101346.50;;;10.68;100.00
23574;BME280;11965;53.640;10.050;2023-05-02T01:28:18;101338.41;;;10.58;100.00
23574;BME280;11965;53.640;10.050;2023-05-02T01:30:52;101348.84;;;10.56;100.00
23574;BME280;11965;53.640;10.050;2023-05-02T01:33:24;101354.81;;;10.45;100.00
23574;BME280;11965;53.640;10.050;2023-05-02T01:35:54;101347.81;;;10.49;100.00
23574;BME280;11965;53.640;10.050;2023-05-02T01:38:23;101351.28;;;10.51;100.00
23574;BME280;11965;53.640;10.050;2023-05-02T01:40:56;101356.69;;;10.45;100.00
23574;BME280;11965;53.640;10.050;2023-05-02T01:43:30;101346.66;;;10.44;100.00
23574;BME280;11965;53.640;10.050;2023-05-02T01:46:01;101346.59;;;10.52;100.00
23574;BME280;11965;53.640;10.050;2023-05-02T01:48:31;101351.78;;;10.55;100.00
23574;BME280;11965;53.640;10.050;2023-05-02T01:50:59;101358.78;;;10.43;100.00
23574;BME280;11965;53.640;10.050;2023-05-02T01:53:29;101359.28;;;10.46;100.00
23574;BME280;11965;53.640;10.050;2023-05-02T01:56:00;101354.81;;;10.45;100.00
23574;BME280;11965;53.640;10.050;2023-05-02T01:58:29;101364.34;;;10.43;100.00
23574;BME280;11965;53.640;10.050;2023-05-02T02:00:59;101366.81;;;10.29;100.00
23574;BME280;11965;53.640;10.050;2023-05-02T02:03:29;101364.22;;;10.20;100.00
23574;BME280;11965;53.640;10.050;2023-05-02T02:05:59;101367.31;;;10.25;100.00
23574;BME280;11965;53.640;10.050;2023-05-02T02:08:27;101363.69;;;10.32;100.00
23574;BME280;11965;53.640;10.050;2023-05-02T02:10:59;101379.94;;;10.35;100.00
23574;BME280;11965;53.640;10.050;2023-05-02T02:13:31;101374.25;;;10.37;100.00
23574;BME280;11965;53.640;10.050;2023-05-02T02:16:04;101375.63;;;10.33;100.00
23574;BME280;11965;53.640;10.050;2023-05-02T02:18:36;101383.09;;;10.32;100.00
23574;BME280;11965;53.640;10.050;2023-05-02T02:21:08;101374.25;;;10.37;100.00
23574;BME280;11965;53.640;10.050;2023-05-02T02:23:38;101381.50;;;10.38;100.00
23574;BME280;11965;53.640;10.050;2023-05-02T02:26:08;101390.66;;;10.38;100.00
23574;BME280;11965;53.640;10.050;2023-05-02T02:28:35;101390.34;;;10.33;100.00
23574;BME280;11965;53.640;10.050;2023-05-02T02:31:04;101387.03;;;10.38;100.00
23574;BME280;11965;53.640;10.050;2023-05-02T02:33:31;101397.91;;;10.39;100.00
23574;BME280;11965;53.640;10.050;2023-05-02T02:36:11;101402.56;;;10.47;100.00
23574;BME280;11965;53.640;10.050;2023-05-02T02:38:45;101417.88;;;10.35;100.00
23574;BME280;11965;53.640;10.050;2023-05-02T02:41:19;101421.69;;;10.34;100.00
23574;BME280;11965;53.640;10.050;2023-05-02T02:43:57;101425.50;;;10.33;100.00
23574;BME280;11965;53.640;10.050;2023-05-02T02:46:36;101422.97;;;9.99;100.00
23574;BME280;11965;53.640;10.050;2023-05-02T02:49:21;101438.06;;;9.88;100.00
23574;BME280;11965;53.640;10.050;2023-05-02T02:51:57;101447.06;;;9.82;100.00
23574;BME280;11965;53.640;10.050;2023-05-02T02:54:32;101447.94;;;9.66;100.00
23574;BME280;11965;53.640;10.050;2023-05-02T02:57:06;101460.75;;;9.42;100.00
23574;BME280;11965;53.640;10.050;2023-05-02T02:59:37;101467.13;;;9.35;100.00
23574;BME280;11965;53.640;10.050;2023-05-02T03:02:11;101464.03;;;9.29;100.00
23574;BME280;11965;53.640;10.050;2023-05-02T03:04:42;101472.84;;;9.33;100.00
23574;BME280;11965;53.640;10.050;2023-05-02T03:07:10;101478.72;;;9.14;100.00
23574;BME280;11965;53.640;10.050;2023-05-02T03:09:41;101481.13;;;9.09;100.00
23574;BME280;11965;53.640;10.050;2023-05-02T03:12:09;101504.28;;;9.16;100.00
23574;BME280;11965;53.640;10.050;2023-05-02T03:14:39;101518.63;;;9.11;100.00
23574;BME280;11965;53.640;10.050;2023-05-02T03:17:07;101522.91;;;8.97;100.00
23574;BME280;11965;53.640;10.050;2023-05-02T03:19:35;101528.50;;;8.71;100.00
23574;BME280;11965;53.640;10.050;2023-05-02T03:22:04;101532.69;;;8.41;100.00
23574;BME280;11965;53.640;10.050;2023-05-02T03:24:32;101541.69;;;8.51;100.00
23574;BME280;11965;53.640;10.050;2023-05-02T03:26:59;101552.22;;;8.48;100.00
23574;BME280;11965;53.640;10.050;2023-05-02T03:29:32;101553.63;;;8.52;100.00
23574;BME280;11965;53.640;10.050;2023-05-02T03:31:59;101554.78;;;8.41;100.00
23574;BME280;11965;53.640;10.050;2023-05-02T03:34:27;101561.06;;;8.33;100.00
23574;BME280;11965;53.640;10.050;2023-05-02T03:36:55;101564.53;;;8.35;98.38
23574;BME280;11965;53.640;10.050;2023-05-02T03:39:22;101565.88;;;8.31;96.90
23574;BME280;11965;53.640;10.050;2023-05-02T03:41:49;101563.00;;;8.15;98.04
23574;BME280;11965;53.640;10.050;2023-05-02T03:44:19;101579.78;;;8.22;96.99
23574;BME280;11965;53.640;10.050;2023-05-02T03:46:46;101578.34;;;8.35;94.44
23574;BME280;11965;53.640;10.050;2023-05-02T03:49:13;101575.31;;;8.21;92.39
23574;BME280;11965;53.640;10.050;2023-05-02T03:51:44;101598.19;;;8.13;94.77
23574;BME280;11965;53.640;10.050;2023-05-02T03:54:12;101584.19;;;8.06;93.72
23574;BME280;11965;53.640;10.050;2023-05-02T03:56:41;101582.03;;;8.18;93.29
23574;BME280;11965;53.640;10.050;2023-05-02T03:59:17;101596.56;;;8.02;90.46
23574;BME280;11965;53.640;10.050;2023-05-02T04:01:47;101602.00;;;7.94;91.43
23574;BME280;11965;53.640;10.050;2023-05-02T04:04:14;101603.53;;;7.88;91.26
23574;BME280;11965;53.640;10.050;2023-05-02T04:06:47;101600.56;;;8.08;87.71
23574;BME280;11965;53.640;10.050;2023-05-02T04:09:15;101608.84;;;8.08;88.75
23574;BME280;11965;53.640;10.050;2023-05-02T04:11:54;101615.97;;;7.92;87.24
23574;BME280;11965;53.640;10.050;2023-05-02T04:14:22;101625.84;;;7.77;88.62
23574;BME280;11965;53.640;10.050;2023-05-02T04:16:51;101631.75;;;7.82;89.12
23574;BME280;11965;53.640;10.050;2023-05-02T04:19:25;101629.53;;;7.86;89.90
23574;BME280;11965;53.640;10.050;2023-05-02T04:21:54;101643.34;;;7.86;88.62
23574;BME280;11965;53.640;10.050;2023-05-02T04:24:21;101645.16;;;8.13;86.64
23574;BME280;11965;53.640;10.050;2023-05-02T04:26:48;101644.44;;;8.11;86.41
23574;BME280;11965;53.640;10.050;2023-05-02T04:29:15;101659.03;;;8.03;86.06
23574;BME280;11965;53.640;10.050;2023-05-02T04:31:43;101651.63;;;8.04;86.09
23574;BME280;11965;53.640;10.050;2023-05-02T04:34:12;101654.13;;;7.97;88.78
23574;BME280;11965;53.640;10.050;2023-05-02T04:36:44;101673.63;;;7.95;87.99
23574;BME280;11965;53.640;10.050;2023-05-02T04:39:15;101672.94;;;8.11;84.11
23574;BME280;11965;53.640;10.050;2023-05-02T04:41:51;101673.63;;;7.95;85.57
23574;BME280;11965;53.640;10.050;2023-05-02T04:44:20;101672.53;;;8.06;83.69
23574;BME280;11965;53.640;10.050;2023-05-02T04:46:48;101671.56;;;7.97;83.04
23574;BME280;11965;53.640;10.050;2023-05-02T04:49:14;101691.03;;;8.14;82.88
23574;BME280;11965;53.640;10.050;2023-05-02T04:51:41;101698.53;;;8.22;82.17
23574;BME280;11965;53.640;10.050;2023-05-02T04:54:08;101699.44;;;8.22;80.47
23574;BME280;11965;53.640;10.050;2023-05-02T04:56:37;101704.06;;;8.22;79.96
23574;BME280;11965;53.640;10.050;2023-05-02T04:59:05;101719.78;;;8.21;77.92
23574;BME280;11965;53.640;10.050;2023-05-02T05:01:33;101716.78;;;7.96;81.93
23574;BME280;11965;53.640;10.050;2023-05-02T05:04:01;101730.72;;;7.95;77.03
23574;BME280;11965;53.640;10.050;2023-05-02T05:06:28;101742.06;;;7.92;77.85
23574;BME280;11965;53.640;10.050;2023-05-02T05:08:56;101731.47;;;8.15;76.54
23574;BME280;11965;53.640;10.050;2023-05-02T05:11:24;101741.47;;;7.98;76.00
23574;BME280;11965;53.640;10.050;2023-05-02T05:13:53;101740.66;;;7.88;74.78
23574;BME280;11965;53.640;10.050;2023-05-02T05:16:21;101742.47;;;7.97;74.49
23574;BME280;11965;53.640;10.050;2023-05-02T05:18:49;101743.56;;;7.86;74.88
23574;BME280;11965;53.640;10.050;2023-05-02T05:21:18;101752.25;;;7.91;76.00
23574;BME280;11965;53.640;10.050;2023-05-02T05:23:46;101757.25;;;8.06;74.60
23574;BME280;11965;53.640;10.050;2023-05-02T05:26:18;101760.50;;;8.01;74.74
23574;BME280;11965;53.640;10.050;2023-05-02T05:28:47;101758.09;;;7.88;74.46
23574;BME280;11965;53.640;10.050;2023-05-02T05:31:17;101755.56;;;7.95;74.85
23574;BME280;11965;53.640;10.050;2023-05-02T05:33:50;101762.91;;;7.86;74.59
23574;BME280;11965;53.640;10.050;2023-05-02T05:36:18;101763.94;;;8.03;71.86
23574;BME280;11965;53.640;10.050;2023-05-02T05:38:45;101768.06;;;7.99;73.11
23574;BME280;11965;53.640;10.050;2023-05-02T05:41:13;101782.66;;;8.09;71.91
23574;BME280;11965;53.640;10.050;2023-05-02T05:43:45;101776.75;;;8.04;72.31
23574;BME280;11965;53.640;10.050;2023-05-02T05:46:12;101779.22;;;7.97;74.05
23574;BME280;11965;53.640;10.050;2023-05-02T05:48:40;101793.44;;;8.03;72.70
23574;BME280;11965;53.640;10.050;2023-05-02T05:51:08;101788.31;;;8.08;73.52
23574;BME280;11965;53.640;10.050;2023-05-02T05:53:35;101791.25;;;8.06;72.33
23574;BME280;11965;53.640;10.050;2023-05-02T05:56:07;101799.19;;;7.91;72.00
23574;BME280;11965;53.640;10.050;2023-05-02T05:58:36;101803.19;;;7.79;72.73
23574;BME280;11965;53.640;10.050;2023-05-02T06:01:03;101796.53;;;8.00;70.49
23574;BME280;11965;53.640;10.050;2023-05-02T06:03:30;101807.00;;;7.96;70.91
23574;BME280;11965;53.640;10.050;2023-05-02T06:05:58;101797.91;;;7.86;69.90
23574;BME280;11965;53.640;10.050;2023-05-02T06:08:25;101819.44;;;8.10;71.02
23574;BME280;11965;53.640;10.050;2023-05-02T06:10:52;101814.53;;;8.04;69.93
23574;BME280;11965;53.640;10.050;2023-05-02T06:13:19;101813.19;;;8.08;71.34
23574;BME280;11965;53.640;10.050;2023-05-02T06:15:47;101824.25;;;8.26;71.70
23574;BME280;11965;53.640;10.050;2023-05-02T06:18:14;101813.19;;;8.08;69.62
23574;BME280;11965;53.640;10.050;2023-05-02T06:20:42;101819.19;;;8.21;69.42
23574;BME280;11965;53.640;10.050;2023-05-02T06:23:10;101826.09;;;8.35;68.62
23574;BME280;11965;53.640;10.050;2023-05-02T06:25:37;101827.16;;;8.24;66.55
23574;BME280;11965;53.640;10.050;2023-05-02T06:28:04;101833.47;;;8.16;65.74
23574;BME280;11965;53.640;10.050;2023-05-02T06:30:31;101849.56;;;8.21;67.62
23574;BME280;11965;53.640;10.050;2023-05-02T06:32:58;101845.13;;;8.10;66.54
23574;BME280;11965;53.640;10.050;2023-05-02T06:35:25;101848.97;;;8.00;68.51
23574;BME280;11965;53.640;10.050;2023-05-02T06:37:52;101859.16;;;7.99;68.38
23574;BME280;11965;53.640;10.050;2023-05-02T06:40:20;101864.31;;;8.12;67.94
23574;BME280;11965;53.640;10.050;2023-05-02T06:42:47;101861.88;;;8.09;68.46
23574;BME280;11965;53.640;10.050;2023-05-02T06:45:14;101866.00;;;8.23;68.10
23574;BME280;11965;53.640;10.050;2023-05-02T06:47:41;101871.25;;;8.16;67.68
23574;BME280;11965;53.640;10.050;2023-05-02T06:50:09;101873.72;;;8.19;65.99
23574;BME280;11965;53.640;10.050;2023-05-02T06:52:36;101880.50;;;8.25;67.14
23574;BME280;11965;53.640;10.050;2023-05-02T06:55:03;101888.44;;;8.37;64.12
23574;BME280;11965;53.640;10.050;2023-05-02T06:57:32;101896.97;;;8.16;67.59
23574;BME280;11965;53.640;10.050;2023-05-02T06:59:59;101892.78;;;8.50;63.70
23574;BME280;11965;53.640;10.050;2023-05-02T07:02:26;101899.38;;;8.57;64.60
23574;BME280;11965;53.640;10.050;2023-05-02T07:04:52;101906.28;;;8.53;62.28
23574;BME280;11965;53.640;10.050;2023-05-02T07:07:19;101906.75;;;8.66;64.03
23574;BME280;11965;53.640;10.050;2023-05-02T07:09:46;101910.25;;;8.68;62.98
23574;BME280;11965;53.640;10.050;2023-05-02T07:12:13;101921.31;;;8.68;64.93
23574;BME280;11965;53.640;10.050;2023-05-02T07:14:41;101923.97;;;8.78;62.01
23574;BME280;11965;53.640;10.050;2023-05-02T07:17:11;101921.47;;;8.84;62.42
23574;BME280;11965;53.640;10.050;2023-05-02T07:19:38;101929.47;;;9.05;64.27
23574;BME280;11965;53.640;10.050;2023-05-02T07:22:05;101926.66;;;9.41;60.02
23574;BME280;11965;53.640;10.050;2023-05-02T07:24:32;101935.41;;;9.55;55.57
23574;BME280;11965;53.640;10.050;2023-05-02T07:26:59;101924.34;;;9.81;54.53
23574;BME280;11965;53.640;10.050;2023-05-02T07:29:26;101934.88;;;9.33;56.70
23574;BME280;11965;53.640;10.050;2023-05-02T07:31:54;101931.47;;;9.39;56.26
23574;BME280;11965;53.640;10.050;2023-05-02T07:34:21;101939.03;;;9.55;56.28
23574;BME280;11965;53.640;10.050;2023-05-02T07:36:47;101937.63;;;9.51;55.02
23574;BME280;11965;53.640;10.050;2023-05-02T07:39:14;101941.69;;;9.39;55.22
23574;BME280;11965;53.640;10.050;2023-05-02T07:41:42;101939.41;;;9.60;55.36
23574;BME280;11965;53.640;10.050;2023-05-02T07:44:09;101952.84;;;9.73;55.04
23574;BME280;11965;53.640;10.050;2023-05-02T07:46:36;101949.41;;;9.53;53.86
23574;BME280;11965;53.640;10.050;2023-05-02T07:49:04;101954.66;;;9.38;54.01
23574;BME280;11965;53.640;10.050;2023-05-02T07:51:31;101952.84;;;9.73;54.73
23574;BME280;11965;53.640;10.050;2023-05-02T07:53:58;101962.88;;;10.00;50.94
23574;BME280;11965;53.640;10.050;2023-05-02T07:56:26;101960.44;;;9.97;53.43
23574;BME280;11965;53.640;10.050;2023-05-02T07:58:53;101960.66;;;10.04;55.43
23574;BME280;11965;53.640;10.050;2023-05-02T08:01:20;101961.47;;;9.96;51.92
23574;BME280;11965;53.640;10.050;2023-05-02T08:03:47;101974.28;;;9.71;53.04
23574;BME280;11965;53.640;10.050;2023-05-02T08:06:15;101972.06;;;10.01;52.22
23574;BME280;11965;53.640;10.050;2023-05-02T08:08:42;101972.44;;;10.06;52.64
23574;BME280;11965;53.640;10.050;2023-05-02T08:11:09;101979.75;;;10.15;50.46
23574;BME280;11965;53.640;10.050;2023-05-02T08:13:36;101981.34;;;10.44;50.09
23574;BME280;11965;53.640;10.050;2023-05-02T08:16:03;101990.19;;;10.47;51.69
23574;BME280;11965;53.640;10.050;2023-05-02T08:18:29;101981.66;;;10.41;50.28
23574;BME280;11965;53.640;10.050;2023-05-02T08:20:56;101988.94;;;10.42;49.92
23574;BME280;11965;53.640;10.050;2023-05-02T08:23:25;101997.84;;;10.53;48.53
23574;BME280;11965;53.640;10.050;2023-05-02T08:25:52;101989.75;;;10.68;49.89
23574;BME280;11965;53.640;10.050;2023-05-02T08:28:19;102004.25;;;10.54;53.17
23574;BME280;11965;53.640;10.050;2023-05-02T08:30:46;102009.28;;;10.58;53.54
23574;BME280;11965;53.640;10.050;2023-05-02T08:33:14;102000.41;;;10.97;51.24
23574;BME280;11965;53.640;10.050;2023-05-02T08:35:40;102005.66;;;11.17;50.68
23574;BME280;11965;53.640;10.050;2023-05-02T08:38:07;102007.19;;;11.03;49.14
23574;BME280;11965;53.640;10.050;2023-05-02T08:40:37;102010.66;;;10.97;49.97
23574;BME280;11965;53.640;10.050;2023-05-02T08:43:04;102014.50;;;11.12;49.45
23574;BME280;11965;53.640;10.050;2023-05-02T08:45:36;102015.06;;;11.40;49.02
23574;BME280;11965;53.640;10.050;2023-05-02T08:48:06;102010.72;;;11.21;50.08
23574;BME280;11965;53.640;10.050;2023-05-02T08:50:36;102022.63;;;11.05;51.77
23574;BME280;11965;53.640;10.050;2023-05-02T08:53:04;102020.56;;;11.08;50.67
23574;BME280;11965;53.640;10.050;2023-05-02T08:55:33;102023.13;;;11.01;49.95
23574;BME280;11965;53.640;10.050;2023-05-02T08:58:02;102023.47;;;10.98;50.66
23574;BME280;11965;53.640;10.050;2023-05-02T09:00:29;102026.28;;;11.06;51.82
23574;BME280;11965;53.640;10.050;2023-05-02T09:03:06;102028.94;;;11.32;48.83
23574;BME280;11965;53.640;10.050;2023-05-02T09:05:39;102042.84;;;11.48;49.96
23574;BME280;11965;53.640;10.050;2023-05-02T09:08:07;102037.81;;;11.68;48.77
23574;BME280;11965;53.640;10.050;2023-05-02T09:10:34;102051.03;;;11.66;46.93
23574;BME280;11965;53.640;10.050;2023-05-02T09:13:28;102042.53;;;11.92;47.50
23574;BME280;11965;53.640;10.050;2023-05-02T09:15:59;102049.84;;;11.93;47.90
23574;BME280;11965;53.640;10.050;2023-05-02T09:18:32;102040.63;;;11.85;48.81
23574;BME280;11965;53.640;10.050;2023-05-02T09:21:00;102054.16;;;12.29;48.81
23574;BME280;11965;53.640;10.050;2023-05-02T09:23:35;102054.53;;;12.01;45.40
23574;BME280;11965;53.640;10.050;2023-05-02T09:26:13;102059.53;;;11.65;44.69
23574;BME280;11965;53.640;10.050;2023-05-02T09:28:44;102058.16;;;12.18;46.94
23574;BME280;11965;53.640;10.050;2023-05-02T09:31:13;102061.28;;;12.23;45.40
23574;BME280;11965;53.640;10.050;2023-05-02T09:33:41;102061.88;;;12.66;44.58
23574;BME280;11965;53.640;10.050;2023-05-02T09:36:09;102067.47;;;12.58;44.79
23574;BME280;11965;53.640;10.050;2023-05-02T09:38:37;102059.13;;;12.58;45.83
23574;BME280;11965;53.640;10.050;2023-05-02T09:41:04;102070.28;;;12.42;46.24
23574;BME280;11965;53.640;10.050;2023-05-02T09:43:31;102063.16;;;12.47;44.20
23574;BME280;11965;53.640;10.050;2023-05-02T09:46:01;102068.91;;;12.29;45.51
23574;BME280;11965;53.640;10.050;2023-05-02T09:48:30;102072.72;;;12.36;47.60
23574;BME280;11965;53.640;10.050;2023-05-02T09:50:58;102074.63;;;12.44;45.98
23574;BME280;11965;53.640;10.050;2023-05-02T09:53:27;102079.53;;;12.26;45.68
23574;BME280;11965;53.640;10.050;2023-05-02T09:56:02;102078.69;;;12.17;46.24
23574;BME280;11965;53.640;10.050;2023-05-02T09:58:29;102086.84;;;11.86;48.14
23574;BME280;11965;53.640;10.050;2023-05-02T10:00:57;102090.47;;;11.86;47.84
23574;BME280;11965;53.640;10.050;2023-05-02T10:03:27;102080.75;;;11.90;49.63
23574;BME280;11965;53.640;10.050;2023-05-02T10:05:55;102091.50;;;12.18;48.51
23574;BME280;11965;53.640;10.050;2023-05-02T10:08:25;102087.84;;;12.42;47.45
23574;BME280;11965;53.640;10.050;2023-05-02T10:10:55;102079.25;;;12.68;45.35
23574;BME280;11965;53.640;10.050;2023-05-02T10:13:23;102079.56;;;12.73;46.91
23574;BME280;11965;53.640;10.050;2023-05-02T10:15:59;102093.53;;;13.04;46.19
23574;BME280;11965;53.640;10.050;2023-05-02T10:18:37;102099.72;;;12.83;46.77
23574;BME280;11965;53.640;10.050;2023-05-02T10:21:09;102097.72;;;12.53;47.67
23574;BME280;11965;53.640;10.050;2023-05-02T10:23:40;102101.75;;;12.42;49.68
23574;BME280;11965;53.640;10.050;2023-05-02T10:26:13;102100.22;;;12.07;48.94
23574;BME280;11965;53.640;10.050;2023-05-02T10:28:41;102100.69;;;11.78;50.86
23574;BME280;11965;53.640;10.050;2023-05-02T10:31:09;102095.09;;;11.61;52.78
23574;BME280;11965;53.640;10.050;2023-05-02T10:33:39;102096.50;;;11.65;49.93
23574;BME280;11965;53.640;10.050;2023-05-02T10:36:08;102108.72;;;11.97;49.78
23574;BME280;11965;53.640;10.050;2023-05-02T10:38:38;102096.53;;;12.39;49.22
23574;BME280;11965;53.640;10.050;2023-05-02T10:41:11;102096.66;;;13.10;47.46
23574;BME280;11965;53.640;10.050;2023-05-02T10:43:45;102106.00;;;13.56;44.90
23574;BME280;11965;53.640;10.050;2023-05-02T10:46:30;102097.91;;;13.46;45.95
23574;BME280;11965;53.640;10.050;2023-05-02T10:49:03;102105.81;;;13.26;45.29
23574;BME280;11965;53.640;10.050;2023-05-02T10:51:31;102115.22;;;12.70;45.49
23574;BME280;11965;53.640;10.050;2023-05-02T10:54:17;102111.56;;;12.77;45.40
23574;BME280;11965;53.640;10.050;2023-05-02T10:57:06;102106.31;;;12.91;46.78
23574;BME280;11965;53.640;10.050;2023-05-02T10:59:35;102120.13;;;13.15;45.14
23574;BME280;11965;53.640;10.050;2023-05-02T11:02:03;102121.09;;;12.91;48.15
23574;BME280;11965;53.640;10.050;2023-05-02T11:05:05;102128.09;;;13.18;47.62
23574;BME280;11965;53.640;10.050;2023-05-02T11:07:33;102119.97;;;13.48;44.58
23574;BME280;11965;53.640;10.050;2023-05-02T11:10:24;102130.34;;;13.31;44.54
23574;BME280;11965;53.640;10.050;2023-05-02T11:12:54;102134.41;;;13.12;45.94
23574;BME280;11965;53.640;10.050;2023-05-02T11:15:55;102148.78;;;12.85;44.42
23574;BME280;11965;53.640;10.050;2023-05-02T11:18:24;102136.31;;;12.40;46.23
23574;BME280;11965;53.640;10.050;2023-05-02T11:21:25;102133.72;;;12.38;46.48
23574;BME280;11965;53.640;10.050;2023-05-02T11:30:04;102130.22;;;13.08;46.01
23574;BME280;11965;53.640;10.050;2023-05-02T11:33:10;102118.69;;;13.59;43.44
23574;BME280;11965;53.640;10.050;2023-05-02T11:35:42;102125.50;;;13.56;45.12
23574;BME280;11965;53.640;10.050;2023-05-02T11:38:13;102149.28;;;12.88;46.12
23574;BME280;11965;53.640;10.050;2023-05-02T11:40:49;102142.41;;;13.07;47.09
23574;BME280;11965;53.640;10.050;2023-05-02T11:43:18;102149.47;;;12.78;47.51
23574;BME280;11965;53.640;10.050;2023-05-02T11:45:46;102151.56;;;12.76;51.26
23574;BME280;11965;53.640;10.050;2023-05-02T11:48:16;102159.72;;;12.86;46.95
23574;BME280;11965;53.640;10.050;2023-05-02T11:50:45;102163.59;;;12.52;47.40
23574;BME280;11965;53.640;10.050;2023-05-02T11:53:15;102164.03;;;12.89;45.73
23574;BME280;11965;53.640;10.050;2023-05-02T11:55:44;102174.44;;;13.11;45.92
23574;BME280;11965;53.640;10.050;2023-05-02T11:58:13;102177.03;;;13.13;43.63
23574;BME280;11965;53.640;10.050;2023-05-02T12:00:42;102166.59;;;13.15;45.50
23574;BME280;11965;53.640;10.050;2023-05-02T12:03:25;102173.97;;;12.91;48.54
23574;BME280;11965;53.640;10.050;2023-05-02T12:05:52;102170.97;;;13.01;46.38
23574;BME280;11965;53.640;10.050;2023-05-02T12:08:24;102178.00;;;12.64;46.78
23574;BME280;11965;53.640;10.050;2023-05-02T12:10:53;102180.97;;;12.63;47.10
23574;BME280;11965;53.640;10.050;2023-05-02T12:13:22;102181.31;;;12.43;48.03
23574;BME280;11965;53.640;10.050;2023-05-02T12:15:51;102180.81;;;12.40;49.32
23574;BME280;11965;53.640;10.050;2023-05-02T12:18:20;102188.66;;;12.28;48.83
23574;BME280;11965;53.640;10.050;2023-05-02T12:20:49;102178.91;;;12.32;49.15
23574;BME280;11965;53.640;10.050;2023-05-02T12:23:18;102199.56;;;12.37;47.52
23574;BME280;11965;53.640;10.050;2023-05-02T12:25:47;102202.91;;;12.49;47.72
23574;BME280;11965;53.640;10.050;2023-05-02T12:28:17;102203.53;;;12.84;47.67
23574;BME280;11965;53.640;10.050;2023-05-02T12:30:47;102204.78;;;12.49;44.83
23574;BME280;11965;53.640;10.050;2023-05-02T12:33:14;102205.41;;;13.00;43.63
23574;BME280;11965;53.640;10.050;2023-05-02T12:35:42;102193.69;;;13.21;43.36
23574;BME280;11965;53.640;10.050;2023-05-02T12:38:14;102193.59;;;13.06;40.89
23574;BME280;11965;53.640;10.050;2023-05-02T12:40:51;102203.69;;;12.99;42.22
23574;BME280;11965;53.640;10.050;2023-05-02T12:43:19;102216.44;;;12.69;42.67
23574;BME280;11965;53.640;10.050;2023-05-02T12:45:47;102231.72;;;12.56;44.72
23574;BME280;11965;53.640;10.050;2023-05-02T12:48:22;102229.13;;;12.47;45.06
23574;BME280;11965;53.640;10.050;2023-05-02T12:50:49;102234.16;;;12.51;45.80
23574;BME280;11965;53.640;10.050;2023-05-02T12:53:17;102235.03;;;12.44;45.62
23574;BME280;11965;53.640;10.050;2023-05-02T12:55:44;102232.25;;;12.35;46.02
23574;BME280;11965;53.640;10.050;2023-05-02T12:58:12;102247.41;;;12.57;46.12
23574;BME280;11965;53.640;10.050;2023-05-02T13:00:41;102234.16;;;12.76;44.40